Salinas, California
Current Conditions -  °F | °C
As of 12:53 PM on Thursday 23 Oct 2014 (Local Time) from KSNS Reporting Station
Clear Clear  
Wind Chill: 76°   Ceiling: Unl
Heat Index: 76°   Visibility: 10mi
Dew Point: 52°   Wind: 8mph
Humidity: 43%   Direction: 250°WSW
Pressure: 30.02"   Gusts: NA
Location:  36.67°N, 121.65°W
Report Text: KSNS 231953Z 25007KT 10SM CLR 24/11 A3002 RMK AO2 SLP176 T02440111
Loading
Personal Weather Stations






























Interactive Weather Map
Tropical Storm Tracking
New forecast layout! Learn more

10-Day Weather Forecast

Advertisements
Track Severe Weather on mobile